Time;durP1;ratioP1;P1;durP2;ratioP2;P2;SDS_P1;SDS_P2;PMS_P1;PMS_P2;Temp;Humidity;BMP_temperature;BMP_pressure;BME280_temperature;BME280_humidity;BME280_pressure;Samples;Min_cycle;Max_cycle;Signal;HPM_P1;HPM_P2
2022/12/31 00:00:33;;;;;;;;;2.50;1.25;;;;;15.99;84.73;100481.03;5046294;28;45409;-81
2022/12/31 00:02:58;;;;;;;;;0.00;0.00;;;;;15.97;84.77;100482.97;5044796;28;45216;-81
2022/12/31 00:05:23;;;;;;;;;1.50;0.00;;;;;15.92;84.83;100485.03;5055011;28;45334;-81
2022/12/31 00:07:49;;;;;;;;;1.00;1.00;;;;;16.00;84.73;100495.34;5047479;28;45289;-81
2022/12/31 00:10:14;;;;;;;;;2.50;1.50;;;;;15.97;84.91;100493.72;5057238;28;45576;-81
2022/12/31 00:12:40;;;;;;;;;1.50;1.00;;;;;15.99;84.64;100507.97;5057003;28;47072;-81
2022/12/31 00:15:06;;;;;;;;;1.00;1.00;;;;;16.02;84.71;100506.91;5056825;28;45438;-81
2022/12/31 00:17:31;;;;;;;;;2.25;2.00;;;;;16.01;84.68;100503.34;5058591;28;45420;-81
2022/12/31 00:19:56;;;;;;;;;1.50;1.50;;;;;15.99;84.63;100496.28;5055344;28;45294;-81
2022/12/31 00:22:22;;;;;;;;;1.00;0.00;;;;;16.02;84.54;100504.19;5058377;28;45282;-81
2022/12/31 00:24:47;;;;;;;;;4.25;1.75;;;;;16.03;84.58;100505.94;5056692;28;45328;-81
2022/12/31 00:27:12;;;;;;;;;1.50;1.00;;;;;16.00;84.47;100523.13;5046047;28;45315;-81
2022/12/31 00:29:38;;;;;;;;;1.00;1.00;;;;;16.01;84.33;100521.34;5052135;28;45480;-81
2022/12/31 00:32:03;;;;;;;;;0.75;0.00;;;;;15.98;84.46;100521.50;5041747;28;45308;-81
2022/12/31 00:34:29;;;;;;;;;0.50;0.00;;;;;15.99;84.24;100512.44;5053293;28;45313;-84
2022/12/31 00:36:54;;;;;;;;;0.00;0.00;;;;;15.95;84.27;100511.78;5059049;28;45459;-83
2022/12/31 00:39:19;;;;;;;;;1.25;0.25;;;;;16.04;84.11;100523.84;5058403;28;45364;-82
2022/12/31 00:41:45;;;;;;;;;1.25;0.00;;;;;16.06;84.02;100532.69;5056694;28;47862;-81
2022/12/31 00:44:11;;;;;;;;;0.00;0.00;;;;;16.04;84.07;100523.84;5057617;28;45333;-81
2022/12/31 00:46:36;;;;;;;;;2.00;1.00;;;;;16.06;84.03;100536.25;5058689;28;45253;-81
2022/12/31 00:49:02;;;;;;;;;0.00;0.00;;;;;16.03;84.12;100517.56;5055829;28;45475;-80
2022/12/31 00:51:27;;;;;;;;;2.25;0.50;;;;;16.03;84.40;100522.09;5060003;28;48575;-80
2022/12/31 00:53:54;;;;;;;;;1.00;1.00;;;;;16.07;84.19;100521.84;5061737;28;45346;-81
2022/12/31 00:56:24;;;;;;;;;1.00;0.50;;;;;16.07;84.16;100531.72;5048340;28;45293;-80
2022/12/31 00:58:50;;;;;;;;;1.00;0.00;;;;;16.07;84.17;100513.75;5047179;28;45357;-80
2022/12/31 01:01:20;;;;;;;;;2.00;0.25;;;;;16.03;83.74;100525.66;5041327;28;45241;-80
2022/12/31 01:03:47;;;;;;;;;3.00;0.00;;;;;16.08;83.94;100526.25;5055567;28;45297;-80
2022/12/31 01:06:13;;;;;;;;;1.00;1.00;;;;;16.09;83.75;100522.59;5060509;28;45326;-80
2022/12/31 01:08:39;;;;;;;;;0.50;0.50;;;;;16.07;83.79;100537.09;5060131;28;45427;-81
2022/12/31 01:11:27;;;;;;;;;1.25;1.00;;;;;16.07;83.75;100542.50;5061727;28;46046;-80
2022/12/31 01:14:03;;;;;;;;;0.50;0.50;;;;;16.10;83.72;100550.38;5059951;28;45395;-81
2022/12/31 01:16:35;;;;;;;;;0.00;0.00;;;;;16.06;83.65;100541.63;5061624;28;45260;-81
2022/12/31 01:19:04;;;;;;;;;1.75;0.00;;;;;16.10;83.61;100553.09;5061142;28;45416;-81
2022/12/31 01:21:30;;;;;;;;;0.00;0.00;;;;;16.05;83.64;100545.25;5061096;28;45552;-81
2022/12/31 01:23:57;;;;;;;;;3.00;0.00;;;;;16.02;83.54;100547.28;5060989;28;45318;-81
2022/12/31 01:26:22;;;;;;;;;0.00;0.00;;;;;16.08;83.51;100547.78;5059937;28;45494;-81
2022/12/31 01:28:48;;;;;;;;;2.75;0.50;;;;;16.01;83.30;100540.19;5056296;28;45568;-81
2022/12/31 01:31:15;;;;;;;;;0.00;0.00;;;;;16.04;83.65;100567.78;5056871;28;45583;-81
2022/12/31 01:33:42;;;;;;;;;3.75;0.75;;;;;16.11;83.62;100568.28;5052794;28;45440;-81
2022/12/31 01:36:14;;;;;;;;;0.00;0.00;;;;;16.12;83.51;100570.00;5055989;28;45263;-81
2022/12/31 01:38:40;;;;;;;;;2.50;2.00;;;;;16.14;83.54;100564.53;5051503;28;45365;-81
2022/12/31 01:41:06;;;;;;;;;1.00;0.00;;;;;16.15;83.22;100572.53;5054178;28;46170;-80
2022/12/31 01:43:41;;;;;;;;;0.50;0.00;;;;;16.07;83.41;100573.00;5048627;28;45261;-81
2022/12/31 01:46:08;;;;;;;;;0.00;0.00;;;;;16.15;83.36;100580.59;5059341;28;45456;-82
2022/12/31 01:48:33;;;;;;;;;0.00;0.00;;;;;16.17;83.35;100593.97;5060893;28;45238;-82
2022/12/31 01:50:59;;;;;;;;;0.00;0.00;;;;;16.14;83.35;100586.97;5059465;28;48273;-82
2022/12/31 01:53:24;;;;;;;;;0.00;0.00;;;;;16.20;83.33;100594.66;5060465;28;45356;-81
2022/12/31 01:55:56;;;;;;;;;1.50;0.00;;;;;16.21;83.10;100587.47;5057331;28;45360;-81
2022/12/31 01:58:28;;;;;;;;;0.00;0.00;;;;;16.19;83.51;100583.97;5040359;28;45348;-81
2022/12/31 02:00:56;;;;;;;;;2.00;0.00;;;;;16.23;83.08;100596.31;5040355;28;45656;-82
2022/12/31 02:03:22;;;;;;;;;1.00;1.00;;;;;16.16;82.93;100582.34;5044864;28;45251;-81
2022/12/31 02:06:06;;;;;;;;;2.00;1.00;;;;;16.26;82.85;100601.53;5060390;28;45325;-81
2022/12/31 02:08:32;;;;;;;;;0.00;0.00;;;;;16.26;82.84;100599.72;5061169;28;45368;-82
2022/12/31 02:10:57;;;;;;;;;0.00;0.00;;;;;16.20;82.38;100586.59;5059425;28;47373;-78
2022/12/31 02:13:23;;;;;;;;;0.00;0.00;;;;;16.30;82.23;100601.28;5060020;28;45235;-80
2022/12/31 02:16:04;;;;;;;;;1.00;0.00;;;;;16.31;82.36;100591.38;5060635;28;45573;-80
2022/12/31 02:18:49;;;;;;;;;1.50;0.00;;;;;16.31;82.25;100599.44;5046731;28;45510;-82
2022/12/31 02:21:17;;;;;;;;;0.00;0.00;;;;;16.33;81.94;100602.06;5060696;28;45369;-82
2022/12/31 02:23:57;;;;;;;;;0.25;0.00;;;;;16.29;82.06;100590.59;5059160;28;45317;-81
2022/12/31 02:26:41;;;;;;;;;1.00;1.00;;;;;16.36;81.95;100609.97;5046881;28;45283;-81
2022/12/31 02:29:45;;;;;;;;;1.00;1.00;;;;;16.37;81.46;100615.25;5049725;28;45442;-82
2022/12/31 02:32:23;;;;;;;;;0.50;0.50;;;;;16.28;81.55;100600.47;5039336;28;45371;-82
2022/12/31 02:34:59;;;;;;;;;1.00;0.50;;;;;16.33;81.62;100604.75;5045574;28;45317;-81
2022/12/31 02:37:29;;;;;;;;;0.00;0.00;;;;;16.38;81.38;100625.06;5059142;28;45317;-81
2022/12/31 02:39:55;;;;;;;;;0.50;0.50;;;;;16.39;81.40;100612.44;5059822;28;45436;-81
2022/12/31 02:42:20;;;;;;;;;0.00;0.00;;;;;16.40;81.30;100614.19;5060005;28;46349;-81
2022/12/31 02:44:46;;;;;;;;;2.00;0.00;;;;;16.43;81.03;100632.88;5046354;28;45425;-81
2022/12/31 02:47:30;;;;;;;;;2.00;0.25;;;;;16.43;81.19;100627.47;5048426;28;45337;-81
2022/12/31 02:50:05;;;;;;;;;0.75;0.25;;;;;16.43;80.96;100640.94;5045580;28;45464;-81
2022/12/31 02:52:58;;;;;;;;;2.00;0.00;;;;;16.43;80.78;100631.03;5047017;28;46106;-81
2022/12/31 02:55:45;;;;;;;;;0.00;0.00;;;;;16.39;80.84;100617.81;5055683;28;46130;-81
2022/12/31 03:04:33;;;;;;;;;0.00;0.00;;;;;16.42;80.08;100628.44;5053696;28;45611;-82
2022/12/31 03:07:07;;;;;;;;;1.00;0.75;;;;;16.41;80.54;100616.78;5054190;28;45549;-82
2022/12/31 03:09:34;;;;;;;;;1.75;1.00;;;;;16.37;80.46;100627.84;5058688;28;45374;-82
2022/12/31 03:14:45;;;;;;;;;0.00;0.00;;;;;16.36;80.07;100620.72;5058093;28;45699;-82
2022/12/31 03:17:10;;;;;;;;;0.00;0.00;;;;;16.32;80.25;100627.25;5059280;28;45454;-82
2022/12/31 03:22:29;;;;;;;;;1.00;1.00;;;;;16.39;79.95;100631.28;5059196;28;45411;-82
2022/12/31 03:27:39;;;;;;;;;1.00;0.00;;;;;16.38;79.73;100634.97;5059016;28;45312;-82
2022/12/31 03:30:05;;;;;;;;;0.25;0.25;;;;;16.45;79.85;100656.06;5055188;28;45650;-82
2022/12/31 03:32:31;;;;;;;;;0.00;0.00;;;;;16.41;79.70;100642.88;5057171;28;45335;-82
2022/12/31 03:34:56;;;;;;;;;0.75;0.75;;;;;16.38;79.17;100643.91;5058961;28;45282;-82
2022/12/31 03:37:21;;;;;;;;;0.75;0.75;;;;;16.46;79.50;100659.63;5059361;28;45603;-82
2022/12/31 03:39:47;;;;;;;;;0.00;0.00;;;;;16.46;79.34;100647.03;5055298;28;45202;-82
2022/12/31 03:42:12;;;;;;;;;1.50;0.00;;;;;16.44;79.28;100645.41;5047625;28;45173;-82
2022/12/31 03:44:37;;;;;;;;;0.25;0.25;;;;;16.43;79.16;100640.94;5057329;28;47256;-82
2022/12/31 03:47:03;;;;;;;;;0.00;0.00;;;;;16.46;78.95;100640.78;5059105;28;45266;-82
2022/12/31 03:49:28;;;;;;;;;2.00;0.00;;;;;16.42;79.09;100636.50;5040871;28;45518;-82
2022/12/31 03:51:53;;;;;;;;;3.75;1.00;;;;;16.44;78.83;100657.03;5047681;28;45184;-82
2022/12/31 03:54:19;;;;;;;;;1.75;1.00;;;;;16.47;78.76;100659.56;5058315;28;45288;-82
2022/12/31 03:56:44;;;;;;;;;1.50;1.00;;;;;16.43;78.63;100636.44;5049118;28;45318;-82
2022/12/31 03:59:09;;;;;;;;;1.00;1.00;;;;;16.47;78.78;100646.09;5053344;28;45557;-82
2022/12/31 04:01:35;;;;;;;;;1.00;1.00;;;;;16.43;78.74;100649.03;5053762;28;45367;-82
2022/12/31 04:04:00;;;;;;;;;1.00;1.00;;;;;16.41;78.34;100642.88;5041660;28;46729;-82
2022/12/31 04:06:26;;;;;;;;;2.00;1.00;;;;;16.40;78.43;100631.22;5058720;28;45363;-82
2022/12/31 04:08:51;;;;;;;;;1.25;1.00;;;;;16.34;78.12;100625.31;5059291;28;45287;-82
2022/12/31 04:11:16;;;;;;;;;0.00;0.00;;;;;16.39;78.39;100632.19;5058711;28;45409;-82
2022/12/31 04:13:42;;;;;;;;;6.00;1.00;;;;;16.38;77.79;100627.75;5057047;28;47896;-82
2022/12/31 04:16:07;;;;;;;;;0.50;0.50;;;;;16.42;78.25;100636.50;5057326;28;45230;-82
2022/12/31 04:18:32;;;;;;;;;1.75;1.75;;;;;16.41;77.69;100635.66;5058658;28;45384;-82
2022/12/31 04:21:04;;;;;;;;;0.75;0.75;;;;;16.40;78.09;100631.22;5049292;28;45516;-82
2022/12/31 04:23:30;;;;;;;;;2.50;1.50;;;;;16.40;78.11;100624.97;5053940;28;47056;-82
2022/12/31 04:25:56;;;;;;;;;2.00;1.00;;;;;16.46;77.75;100633.56;5060622;28;45436;-82
2022/12/31 04:28:21;;;;;;;;;3.00;1.75;;;;;16.46;77.69;100630.00;5058439;28;45360;-82
2022/12/31 04:30:46;;;;;;;;;1.25;1.25;;;;;16.46;77.93;100614.69;5050807;28;46036;-82
2022/12/31 04:33:12;;;;;;;;;1.00;1.00;;;;;16.48;77.83;100617.31;5060551;27;46045;-82
2022/12/31 04:35:37;;;;;;;;;1.25;1.25;;;;;16.46;77.87;100640.78;5051760;28;45323;-82
2022/12/31 04:38:02;;;;;;;;;3.00;1.00;;;;;16.49;77.65;100663.03;5044986;28;45298;-82
2022/12/31 04:40:28;;;;;;;;;0.00;0.00;;;;;16.42;77.50;100658.06;5050748;28;45812;-82
2022/12/31 04:42:53;;;;;;;;;5.25;2.00;;;;;16.38;77.51;100648.44;5058379;28;45271;-82
2022/12/31 04:45:19;;;;;;;;;1.00;1.00;;;;;16.46;77.60;100649.72;5050231;28;45681;-82
2022/12/31 04:47:44;;;;;;;;;1.25;1.00;;;;;16.47;77.52;100661.34;5061877;28;45310;-81
2022/12/31 04:50:09;;;;;;;;;5.50;2.50;;;;;16.42;77.49;100649.97;5061760;28;45265;-81
2022/12/31 04:52:35;;;;;;;;;2.00;2.00;;;;;16.44;77.59;100648.94;5059127;28;47530;-82
2022/12/31 04:55:00;;;;;;;;;1.75;1.75;;;;;16.48;77.24;100649.63;5052298;28;45282;-82
2022/12/31 04:57:26;;;;;;;;;1.00;1.00;;;;;16.30;77.32;100625.53;5056212;28;45364;-82
2022/12/31 04:59:51;;;;;;;;;4.00;1.00;;;;;16.43;76.99;100643.66;5060481;28;45787;-82
2022/12/31 05:02:16;;;;;;;;;1.50;1.50;;;;;16.50;77.26;100658.50;5061205;28;45286;-82
2022/12/31 05:04:42;;;;;;;;;1.00;1.00;;;;;16.43;77.08;100651.72;5052458;28;45148;-82
2022/12/31 05:07:07;;;;;;;;;1.75;1.00;;;;;16.50;77.14;100658.50;5055039;28;45284;-82
2022/12/31 05:09:33;;;;;;;;;1.50;1.00;;;;;16.53;77.04;100679.88;5049828;28;45249;-82
2022/12/31 05:11:58;;;;;;;;;2.50;2.00;;;;;16.47;76.92;100674.81;5047727;28;45754;-82
2022/12/31 05:14:24;;;;;;;;;2.25;0.00;;;;;16.51;77.09;100668.31;5061446;28;45283;-82
2022/12/31 05:16:49;;;;;;;;;1.50;1.00;;;;;16.50;76.86;100663.88;5058930;28;45232;-82
2022/12/31 05:19:15;;;;;;;;;1.00;1.00;;;;;16.52;76.75;100682.66;5061424;28;45289;-83
2022/12/31 05:21:40;;;;;;;;;2.25;1.00;;;;;16.53;77.06;100684.41;5059846;28;48064;-82
2022/12/31 05:24:06;;;;;;;;;1.00;1.00;;;;;16.49;76.93;100678.31;5059334;28;45325;-82
2022/12/31 05:26:31;;;;;;;;;3.00;2.00;;;;;16.42;76.61;100669.72;5061442;28;45464;-82
2022/12/31 05:28:59;;;;;;;;;0.00;0.00;;;;;16.49;76.63;100683.72;5060913;28;45309;-83
2022/12/31 05:31:24;;;;;;;;;1.25;1.25;;;;;16.48;76.92;100684.66;5063586;28;46473;-82
2022/12/31 05:33:49;;;;;;;;;4.00;2.00;;;;;16.51;76.60;100692.56;5060094;28;45940;-82
2022/12/31 05:36:15;;;;;;;;;2.25;1.00;;;;;16.36;76.73;100675.47;5057588;28;45292;-82
2022/12/31 05:38:40;;;;;;;;;1.00;1.00;;;;;16.46;76.64;100681.19;5052854;28;45242;-82
2022/12/31 05:41:07;;;;;;;;;1.00;1.00;;;;;16.54;76.47;100696.91;5042152;28;45322;-82
2022/12/31 05:43:32;;;;;;;;;3.00;2.50;;;;;16.43;76.38;100684.06;5060423;28;45278;-82
2022/12/31 05:46:03;;;;;;;;;3.00;1.00;;;;;16.52;76.51;100698.81;5057670;28;45287;-83
2022/12/31 05:48:29;;;;;;;;;1.50;1.50;;;;;16.42;76.07;100685.00;5052445;28;45310;-82
2022/12/31 05:50:54;;;;;;;;;2.50;2.00;;;;;16.49;76.63;100710.66;5054001;28;45352;-82
2022/12/31 05:53:20;;;;;;;;;2.00;2.00;;;;;16.41;76.09;100692.22;5049002;28;45339;-82
2022/12/31 05:55:46;;;;;;;;;2.50;1.00;;;;;16.48;76.39;100708.91;5047480;28;45488;-83
2022/12/31 05:58:13;;;;;;;;;3.00;2.25;;;;;16.26;76.29;100661.66;5059254;28;45250;-83
2022/12/31 06:00:38;;;;;;;;;1.75;1.00;;;;;16.41;76.40;100694.91;5060291;28;46495;-83
2022/12/31 06:03:04;;;;;;;;;2.75;2.00;;;;;16.38;76.34;100684.31;5059509;28;45444;-83
2022/12/31 06:05:29;;;;;;;;;4.25;2.00;;;;;16.47;76.42;100688.31;5060549;28;45284;-83
2022/12/31 06:07:55;;;;;;;;;2.00;2.00;;;;;16.41;76.04;100685.97;5061558;28;45484;-83
2022/12/31 06:10:20;;;;;;;;;2.75;2.00;;;;;16.38;76.08;100681.63;5058021;28;46455;-83
2022/12/31 06:12:45;;;;;;;;;3.00;1.75;;;;;16.39;76.31;100690.56;5059056;28;45763;-83
2022/12/31 06:15:10;;;;;;;;;2.00;1.25;;;;;16.37;76.18;100689.78;5057935;28;45371;-83
2022/12/31 06:17:36;;;;;;;;;1.75;1.00;;;;;16.34;75.95;100689.97;5060506;28;45387;-83
2022/12/31 06:20:02;;;;;;;;;2.50;2.00;;;;;16.41;75.94;100703.00;5060090;28;45308;-83
2022/12/31 06:22:27;;;;;;;;;4.75;2.75;;;;;16.40;75.65;100703.09;5060346;28;45248;-83
2022/12/31 06:24:52;;;;;;;;;3.00;1.75;;;;;16.43;75.84;100705.63;5060118;28;45396;-82
2022/12/31 06:27:18;;;;;;;;;3.00;2.00;;;;;16.37;75.49;100697.88;5059987;28;45285;-82
2022/12/31 06:29:44;;;;;;;;;4.75;3.00;;;;;16.42;75.77;100715.53;5057496;28;47202;-82
2022/12/31 06:32:10;;;;;;;;;4.00;2.00;;;;;16.41;76.03;100710.22;5047702;28;45303;-82
2022/12/31 06:34:35;;;;;;;;;1.00;1.00;;;;;16.36;75.95;100704.25;5053486;28;45465;-82
2022/12/31 06:37:00;;;;;;;;;2.25;2.25;;;;;16.42;75.77;100729.00;5048126;28;45251;-82
2022/12/31 06:39:26;;;;;;;;;3.00;2.00;;;;;16.39;75.81;100718.41;5058642;28;46988;-82
2022/12/31 06:41:52;;;;;;;;;1.50;1.00;;;;;16.34;75.57;100715.09;5059793;28;45206;-81
2022/12/31 06:44:17;;;;;;;;;1.00;1.00;;;;;16.42;75.38;100720.03;5058657;28;45286;-81
2022/12/31 06:46:43;;;;;;;;;3.00;2.00;;;;;16.43;75.38;100729.84;5046397;28;45477;-81
2022/12/31 06:49:08;;;;;;;;;2.00;1.75;;;;;16.34;75.47;100715.09;5058430;28;45211;-81
2022/12/31 06:51:34;;;;;;;;;2.75;2.00;;;;;16.42;75.36;100730.81;5059508;28;45319;-84
2022/12/31 06:53:59;;;;;;;;;1.75;1.75;;;;;16.42;75.32;100733.50;5046302;28;45431;-85
2022/12/31 06:56:27;;;;;;;;;3.25;2.00;;;;;16.42;75.31;100739.78;5051293;28;45252;-84
2022/12/31 06:58:54;;;;;;;;;3.50;2.00;;;;;16.42;75.30;100738.88;5049975;28;47378;-84
2022/12/31 07:01:39;;;;;;;;;1.25;1.00;;;;;16.38;75.19;100734.66;5055859;28;45520;-84
2022/12/31 07:04:22;;;;;;;;;3.00;2.00;;;;;16.47;75.23;100769.13;5057007;28;45318;-84
2022/12/31 07:07:17;;;;;;;;;2.00;2.00;;;;;16.39;75.23;100747.13;5054102;28;45317;-84
2022/12/31 07:10:11;;;;;;;;;4.75;2.00;;;;;16.43;75.34;100748.72;5039009;28;45350;-82
2022/12/31 07:12:44;;;;;;;;;2.00;2.00;;;;;16.41;75.27;100746.09;5058048;28;46031;-82
2022/12/31 07:15:15;;;;;;;;;1.00;1.00;;;;;16.47;75.25;100747.56;5057712;28;45299;-83
2022/12/31 07:17:54;;;;;;;;;3.75;1.75;;;;;16.48;75.15;100754.72;5047646;28;45232;-83
2022/12/31 07:20:20;;;;;;;;;3.50;3.00;;;;;16.44;74.94;100743.25;5058219;28;47556;-83
2022/12/31 07:22:47;;;;;;;;;4.00;2.00;;;;;16.44;75.07;100745.94;5055624;28;45542;-82
2022/12/31 07:25:14;;;;;;;;;4.00;2.00;;;;;16.39;74.83;100739.06;5059049;28;45433;-82
2022/12/31 07:28:02;;;;;;;;;3.00;3.00;;;;;16.48;74.82;100747.50;5057899;28;45377;-82
2022/12/31 07:30:28;;;;;;;;;1.75;1.75;;;;;16.49;74.67;100757.31;5051049;28;45430;-82
2022/12/31 07:32:59;;;;;;;;;3.00;1.25;;;;;16.48;74.96;100752.88;5059108;28;45401;-82
2022/12/31 07:35:44;;;;;;;;;1.50;1.50;;;;;16.48;74.63;100766.34;5058916;28;45468;-82
2022/12/31 07:38:27;;;;;;;;;2.00;0.50;;;;;16.41;74.63;100746.09;5045823;28;45440;-82
2022/12/31 07:41:05;;;;;;;;;2.00;2.00;;;;;16.50;74.38;100777.03;5048489;28;47316;-83
2022/12/31 07:43:51;;;;;;;;;5.00;3.00;;;;;16.55;74.71;100792.97;5058809;28;45659;-82
2022/12/31 07:46:23;;;;;;;;;2.25;2.00;;;;;16.56;74.55;100792.88;5058895;28;45330;-82
2022/12/31 07:48:49;;;;;;;;;3.00;3.00;;;;;16.56;74.28;100795.56;5054467;28;45323;-82
2022/12/31 07:51:14;;;;;;;;;3.75;1.50;;;;;16.55;74.36;100795.66;5052786;28;46884;-81
2022/12/31 07:53:40;;;;;;;;;2.00;2.00;;;;;16.52;74.46;100796.69;5049297;28;45318;-81
2022/12/31 07:56:08;;;;;;;;;5.25;2.25;;;;;16.60;74.28;100825.91;5051198;28;46367;-81
2022/12/31 07:58:39;;;;;;;;;2.00;2.00;;;;;16.62;74.28;100841.03;5059301;28;45387;-81
2022/12/31 08:01:11;;;;;;;;;3.25;3.00;;;;;16.60;74.03;100832.16;5044626;28;45620;-81
2022/12/31 08:03:45;;;;;;;;;2.50;2.50;;;;;16.60;74.04;100829.44;5056434;28;46071;-81
2022/12/31 08:06:29;;;;;;;;;3.25;2.00;;;;;16.57;73.90;100821.56;5045835;28;45332;-81
2022/12/31 08:09:01;;;;;;;;;6.25;3.00;;;;;16.56;73.78;100814.44;5067734;28;45212;-81
2022/12/31 08:11:46;;;;;;;;;2.75;2.75;;;;;16.55;73.58;100815.38;5059176;28;47350;-80
2022/12/31 08:14:14;;;;;;;;;2.75;2.00;;;;;16.47;74.10;100783.50;5053618;28;45533;-81
2022/12/31 08:16:39;;;;;;;;;4.00;3.00;;;;;16.50;73.63;100795.91;5056407;28;45287;-81
2022/12/31 08:19:05;;;;;;;;;4.00;2.75;;;;;16.46;73.24;100791.66;5055190;28;46100;-80
2022/12/31 08:22:03;;;;;;;;;3.50;2.25;;;;;16.49;73.67;100807.66;5060917;28;47619;-81
2022/12/31 08:25:12;;;;;;;;;3.75;3.75;;;;;16.49;73.58;100821.13;5032854;28;45509;-81
2022/12/31 08:27:43;;;;;;;;;6.50;4.00;;;;;16.52;73.61;100837.09;5045189;28;46709;-81
2022/12/31 08:30:15;;;;;;;;;4.00;3.00;;;;;16.52;73.30;100828.16;5057622;28;45372;-81
2022/12/31 08:33:07;;;;;;;;;4.25;4.25;;;;;16.54;73.29;100837.00;5071129;28;45476;-80
2022/12/31 08:36:10;;;;;;;;;4.50;4.00;;;;;16.51;73.19;100826.44;5060664;28;45210;-81
2022/12/31 08:38:44;;;;;;;;;4.00;4.00;;;;;16.51;73.07;100839.91;5025682;28;45464;-80
2022/12/31 08:41:25;;;;;;;;;4.75;4.00;;;;;16.48;73.18;100833.72;5055526;28;45477;-80
2022/12/31 08:44:10;;;;;;;;;3.50;2.75;;;;;16.47;73.18;100847.25;5056484;28;45654;-84
2022/12/31 08:46:43;;;;;;;;;4.00;3.75;;;;;16.47;72.84;100848.16;5053159;28;45590;-84
2022/12/31 08:49:09;;;;;;;;;4.50;3.25;;;;;16.44;73.14;100852.84;5057623;28;45506;-84
2022/12/31 08:51:35;;;;;;;;;5.00;4.50;;;;;16.45;73.06;100857.25;5048454;28;45486;-83
2022/12/31 08:54:00;;;;;;;;;6.75;3.50;;;;;16.44;72.88;100855.53;5061932;28;46503;-83
2022/12/31 08:56:32;;;;;;;;;5.00;4.00;;;;;16.42;72.80;100850.22;5064053;27;46211;-83
2022/12/31 08:59:14;;;;;;;;;5.00;5.00;;;;;16.42;72.78;100860.13;5061140;28;45333;-82
2022/12/31 09:02:19;;;;;;;;;4.50;4.00;;;;;16.33;72.41;100853.41;5042548;28;45397;-84
2022/12/31 09:05:05;;;;;;;;;3.75;3.75;;;;;16.41;72.45;100869.19;5040432;28;45360;-83
2022/12/31 09:07:56;;;;;;;;;4.00;3.00;;;;;16.41;72.62;100861.09;5057759;28;45425;-81
2022/12/31 09:10:38;;;;;;;;;4.75;3.00;;;;;16.40;72.52;100873.66;5039717;28;45361;-80
2022/12/31 09:13:22;;;;;;;;;5.25;3.25;;;;;16.40;72.24;100878.19;5049777;28;45371;-79
2022/12/31 09:16:06;;;;;;;;;5.25;2.00;;;;;16.36;72.54;100864.03;5051211;28;45374;-80
2022/12/31 09:18:36;;;;;;;;;5.50;3.00;;;;;16.39;72.47;100866.56;5053944;28;45475;-82
2022/12/31 09:21:02;;;;;;;;;5.00;3.00;;;;;16.38;72.23;100870.19;5040888;28;45338;-82
2022/12/31 09:23:28;;;;;;;;;4.75;3.25;;;;;16.30;72.39;100853.59;5051522;28;45827;-82
2022/12/31 09:26:07;;;;;;;;;2.75;2.75;;;;;16.32;71.86;100859.75;5055115;28;45425;-82
2022/12/31 09:29:27;;;;;;;;;3.00;3.00;;;;;16.34;71.77;100879.41;5060630;28;45297;-83
2022/12/31 09:32:02;;;;;;;;;4.00;3.00;;;;;16.34;71.88;100867.75;5028589;28;47068;-81
2022/12/31 09:34:36;;;;;;;;;3.50;2.25;;;;;16.28;71.76;100859.06;5047604;28;45456;-81
2022/12/31 09:37:14;;;;;;;;;5.25;3.00;;;;;16.32;71.69;100875.06;5057273;28;47683;-80
2022/12/31 09:39:45;;;;;;;;;4.25;3.00;;;;;16.31;71.65;100876.88;5058529;28;45590;-80
2022/12/31 09:42:38;;;;;;;;;3.75;3.75;;;;;16.33;71.56;100869.59;5060810;28;45554;-80
2022/12/31 09:45:06;;;;;;;;;3.00;3.00;;;;;16.33;71.63;100864.19;5060681;28;45382;-80
2022/12/31 09:48:13;;;;;;;;;6.75;4.00;;;;;16.34;71.64;100881.22;5060553;28;46373;-80
2022/12/31 09:51:16;;;;;;;;;2.50;2.00;;;;;16.35;71.41;100893.75;5060634;28;45407;-81
2022/12/31 09:54:03;;;;;;;;;7.50;4.00;;;;;16.34;71.35;100871.34;5049536;28;45489;-81
2022/12/31 09:56:32;;;;;;;;;5.00;5.00;;;;;16.34;71.30;100879.41;5049933;28;45352;-81
2022/12/31 09:59:05;;;;;;;;;3.00;3.00;;;;;16.35;71.51;100881.13;5059013;28;46091;-81
2022/12/31 10:01:51;;;;;;;;;4.75;3.75;;;;;16.38;71.29;100883.66;5059316;28;45251;-81
2022/12/31 10:04:32;;;;;;;;;4.00;2.25;;;;;16.40;71.22;100878.19;5041257;28;45509;-81
2022/12/31 10:07:06;;;;;;;;;1.00;1.00;;;;;16.41;71.09;100869.19;5042898;28;45413;-83
2022/12/31 10:09:49;;;;;;;;;5.00;3.50;;;;;16.29;70.84;100852.72;5050297;28;48303;-83
2022/12/31 10:12:26;;;;;;;;;6.00;3.00;;;;;16.39;70.86;100868.38;5053492;28;45507;-82
2022/12/31 10:15:17;;;;;;;;;4.00;2.50;;;;;16.40;70.87;100879.06;5052545;28;45359;-82
2022/12/31 10:18:01;;;;;;;;;4.00;4.00;;;;;16.41;70.81;100875.44;5021765;28;45496;-82
2022/12/31 10:20:41;;;;;;;;;6.00;5.00;;;;;16.37;70.75;100867.59;5055555;28;46647;-82
2022/12/31 10:23:37;;;;;;;;;4.00;2.50;;;;;16.40;70.54;100852.13;5051925;28;45489;-82
2022/12/31 10:26:21;;;;;;;;;3.00;3.00;;;;;16.37;70.59;100854.13;5050032;28;45297;-83
2022/12/31 10:29:13;;;;;;;;;4.25;4.25;;;;;16.44;70.05;100853.72;5051715;28;45709;-83
2022/12/31 10:32:10;;;;;;;;;2.75;2.75;;;;;16.29;69.99;100833.88;5062708;28;46477;-82
2022/12/31 10:34:53;;;;;;;;;3.75;2.00;;;;;16.45;69.93;100855.44;5058886;28;45326;-85
2022/12/31 10:37:25;;;;;;;;;4.00;2.00;;;;;16.42;69.79;100850.22;5049933;28;45337;-85
2022/12/31 10:40:17;;;;;;;;;4.00;4.00;;;;;16.46;69.70;100856.31;5059951;28;45275;-84
2022/12/31 10:42:56;;;;;;;;;2.25;2.25;;;;;16.40;69.29;100849.44;5058346;28;48521;-83
2022/12/31 10:45:43;;;;;;;;;3.75;2.25;;;;;16.51;69.57;100854.25;5047370;28;45398;-84
2022/12/31 10:48:47;;;;;;;;;3.50;3.00;;;;;16.52;69.52;100858.66;5046522;28;45283;-83
2022/12/31 10:51:44;;;;;;;;;3.75;2.50;;;;;16.52;69.24;100845.19;5027395;28;46003;-84
2022/12/31 10:54:24;;;;;;;;;8.00;5.00;;;;;16.49;69.19;100829.22;5057601;28;46578;-85
2022/12/31 10:57:06;;;;;;;;;2.00;2.00;;;;;16.54;68.84;100845.09;5055097;28;45327;-86
2022/12/31 10:59:56;;;;;;;;;5.00;4.00;;;;;16.56;69.22;100835.13;5057453;28;45352;-90
2022/12/31 11:02:21;;;;;;;;;2.75;2.00;;;;;16.59;68.74;100840.31;5059733;28;45348;-86
2022/12/31 11:05:05;;;;;;;;;5.75;4.00;;;;;16.61;68.96;100842.00;5053820;28;47651;-86
2022/12/31 11:07:50;;;;;;;;;2.00;2.00;;;;;16.62;68.41;100832.97;5052506;28;45469;-86
2022/12/31 11:10:37;;;;;;;;;3.00;3.00;;;;;16.63;68.32;100828.44;5059715;28;45338;-86
2022/12/31 11:13:24;;;;;;;;;4.75;3.75;;;;;16.68;68.50;100835.28;5053541;28;45529;-86
2022/12/31 11:16:07;;;;;;;;;4.25;3.25;;;;;16.71;68.44;100854.97;5054689;28;45282;-86
2022/12/31 11:19:01;;;;;;;;;4.75;4.00;;;;;16.73;68.00;100826.94;5050016;28;45236;-86
2022/12/31 11:21:37;;;;;;;;;5.00;3.75;;;;;16.64;67.81;100820.25;5049260;28;45519;-86
2022/12/31 11:24:25;;;;;;;;;3.00;3.00;;;;;16.73;67.75;100823.38;5057497;28;45284;-86
2022/12/31 11:27:02;;;;;;;;;3.00;3.00;;;;;16.76;67.54;100815.13;5041787;28;47331;-86
2022/12/31 11:29:38;;;;;;;;;5.00;5.00;;;;;16.77;67.61;100819.53;5053755;28;45374;-86
2022/12/31 11:32:22;;;;;;;;;2.25;2.25;;;;;16.79;67.37;100818.53;5058085;28;45353;-86
2022/12/31 11:34:47;;;;;;;;;2.00;0.75;;;;;16.82;67.46;100826.44;5057717;28;45398;-86
2022/12/31 11:37:44;;;;;;;;;2.00;2.00;;;;;16.82;67.11;100825.53;5047269;28;46182;-86
2022/12/31 11:40:37;;;;;;;;;4.50;3.00;;;;;16.84;66.74;100812.88;5057494;28;45548;-86
2022/12/31 11:43:15;;;;;;;;;3.75;2.25;;;;;16.84;67.04;100829.03;5057056;28;45364;-86
2022/12/31 11:46:01;;;;;;;;;2.25;2.00;;;;;16.77;66.50;100825.84;5055484;28;45488;-86
2022/12/31 11:48:49;;;;;;;;;3.25;3.00;;;;;16.72;66.17;100803.63;5044613;28;47246;-86
2022/12/31 11:51:36;;;;;;;;;2.00;2.00;;;;;16.85;66.55;100822.72;5058101;28;45402;-86
2022/12/31 11:54:40;;;;;;;;;4.00;4.00;;;;;16.78;66.54;100816.78;5058849;28;45251;-86
2022/12/31 11:57:31;;;;;;;;;4.75;3.75;;;;;16.84;66.48;100821.84;5058718;28;45296;-86
2022/12/31 12:00:08;;;;;;;;;3.00;3.00;;;;;16.85;66.16;100815.47;5045588;28;47386;-86
2022/12/31 12:02:36;;;;;;;;;5.00;3.00;;;;;16.84;65.86;100826.34;5056926;28;45503;-86
2022/12/31 12:05:04;;;;;;;;;3.25;3.25;;;;;16.84;66.29;100796.69;5054578;28;45490;-86